This is the latest recevied weather packets stored in our database for station/object KK7UNF. If no packets are shown the sender has not sent any weather packets the latest 10 day(s).
| Time | Temp. | Humidity | Pressure | Rain* | Wind** | Luminosity | Snow |
|---|---|---|---|---|---|---|---|
| 1777919441 | 20.56° C | 63% | 1011.7 hPa | 0 mm | - | 72 W/m² | - |
| 1777913156 | 16.11° C | 77% | 1011.6 hPa | 0 mm | - | 51 W/m² | - |
| 1777910451 | 13.89° C | 90% | 1011.7 hPa | 0 mm | - | 51 W/m² | - |
| 1777908654 | 12.78° C | 92% | 1011.5 hPa | 0 mm | - | 44 W/m² | - |
| 1777898740 | 11.11° C | 89% | 1010.4 hPa | 0 mm | - | 0 W/m² | - |
| 1777896942 | 11.11° C | 89% | 1010.4 hPa | 0 mm | - | 0 W/m² | - |
| 1777886141 | 13.33° C | 81% | 1010.2 hPa | 0 mm | - | 0 W/m² | - |
| 1777873543 | 17.22° C | 69% | 1010.3 hPa | 0 mm | - | 0 W/m² | - |
| 1777868144 | 20° C | 59% | 1010.2 hPa | 0 mm | - | 0 W/m² | - |
| 1777865441 | 21.67° C | 58% | 1010.1 hPa | 0 mm | - | 0 W/m² | - |
| 1777860944 | 23.89° C | 56% | 1010.1 hPa | 0 mm | - | 12 W/m² | - |
| 1777844741 | 27.22° C | 50% | 1012.3 hPa | 0 mm | - | 132 W/m² | - |
| 1777842044 | 27.22° C | 52% | 1012.5 hPa | 0 mm | - | 619 W/m² | - |
| 1777840248 | 26.11° C | 52% | 1013.1 hPa | 0 mm | - | 749 W/m² | - |
| 1777838440 | 25° C | 56% | 1013.5 hPa | 0 mm | - | 747 W/m² | - |
| 1777836660 | 23.33° C | 63% | 1013.8 hPa | 0 mm | - | 715 W/m² | - |
| 1777835745 | 22.22° C | 64% | 1014 hPa | 0 mm | - | 67 W/m² | - |
| 1777834854 | 21.11° C | 67% | 1014.2 hPa | 0 mm | - | 65 W/m² | - |
| 1777832140 | 18.89° C | 76% | 1014.5 hPa | 0 mm | - | 60 W/m² | - |
| 1777829463 | 16.67° C | 80% | 1014.9 hPa | 0 mm | - | 53 W/m² | - |
| 1777822241 | 11.67° C | 96% | 1015.2 hPa | 0 mm | - | 40 W/m² | - |
| 1777818641 | 10.56° C | 94% | 1014.8 hPa | 0 mm | - | 32 W/m² | - |
| 1777815949 | 10° C | 93% | 1014.9 hPa | 0 mm | - | 12 W/m² | - |
| 1777814145 | 10° C | 92% | 1014.9 hPa | 0 mm | - | 0 W/m² | - |
| 1777807849 | 11.11° C | 91% | 1015.1 hPa | 0 mm | - | 0 W/m² | - |
* Rain latest hour (hover to see other rain measurements)
** Current wind speed in m/s (hover to see current wind gust speed)